createdAt,value
2018-04-14T00:00:39.790Z,1010.55
2018-04-14T00:01:39.781Z,1010.60
2018-04-14T00:02:39.776Z,1010.56
2018-04-14T00:03:39.779Z,1010.59
2018-04-14T00:04:39.770Z,1010.60
2018-04-14T00:05:39.761Z,1010.56
2018-04-14T00:06:39.770Z,1010.58
2018-04-14T00:07:39.748Z,1010.54
2018-04-14T00:08:39.752Z,1010.61
2018-04-14T00:09:39.744Z,1010.55
2018-04-14T00:10:39.743Z,1010.59
2018-04-14T00:11:39.747Z,1010.58
2018-04-14T00:12:39.741Z,1010.59
2018-04-14T00:13:39.732Z,1010.61
2018-04-14T00:14:39.718Z,1010.63
2018-04-14T00:15:39.719Z,1010.61
2018-04-14T00:16:39.709Z,1010.60
2018-04-14T00:17:39.708Z,1010.67
2018-04-14T00:18:39.705Z,1010.61
2018-04-14T00:19:39.697Z,1010.62
2018-04-14T00:20:39.706Z,1010.63
2018-04-14T00:21:39.693Z,1010.66
2018-04-14T00:22:39.680Z,1010.67
2018-04-14T00:23:39.671Z,1010.67
2018-04-14T00:24:39.676Z,1010.66
2018-04-14T00:25:39.669Z,1010.67
2018-04-14T00:26:39.677Z,1010.72
2018-04-14T00:27:39.675Z,1010.70
2018-04-14T00:28:39.653Z,1010.71
2018-04-14T00:29:39.642Z,1010.74
2018-04-14T00:30:39.630Z,1010.73
2018-04-14T00:31:39.636Z,1010.74
2018-04-14T00:32:39.624Z,1010.71
2018-04-14T00:33:39.617Z,1010.76
2018-04-14T00:34:39.612Z,1010.77
2018-04-14T00:35:39.620Z,1010.79
2018-04-14T00:36:39.603Z,1010.80
2018-04-14T00:37:39.607Z,1010.82
2018-04-14T00:38:39.620Z,1010.83
2018-04-14T00:39:39.634Z,1010.88
2018-04-14T00:40:39.599Z,1010.85
2018-04-14T00:41:39.574Z,1010.87
2018-04-14T00:42:39.571Z,1010.85
2018-04-14T00:43:39.582Z,1010.88
2018-04-14T00:44:39.575Z,1010.86
2018-04-14T00:45:39.565Z,1010.91
2018-04-14T00:46:39.551Z,1010.91
2018-04-14T00:47:39.561Z,1010.92
2018-04-14T00:48:39.547Z,1010.91
2018-04-14T00:49:39.539Z,1010.90
2018-04-14T00:50:39.536Z,1010.91
2018-04-14T00:51:39.531Z,1010.86
2018-04-14T00:52:39.521Z,1010.89
2018-04-14T00:53:39.512Z,1010.85
2018-04-14T00:54:39.515Z,1010.88
2018-04-14T00:55:39.501Z,1010.85
2018-04-14T00:56:39.500Z,1010.88
2018-04-14T00:57:39.492Z,1010.89
2018-04-14T00:58:39.494Z,1010.88
2018-04-14T00:59:39.474Z,1010.87
2018-04-14T01:00:39.472Z,1010.89
2018-04-14T01:01:39.483Z,1010.87
2018-04-14T01:02:39.465Z,1010.89
2018-04-14T01:03:39.469Z,1010.89
2018-04-14T01:04:39.468Z,1010.88
2018-04-14T01:05:39.465Z,1010.90
2018-04-14T01:06:39.453Z,1010.93
2018-04-14T01:07:39.441Z,1010.93
2018-04-14T01:08:39.461Z,1010.90
2018-04-14T01:09:39.427Z,1010.92
2018-04-14T01:10:39.426Z,1010.93
2018-04-14T01:11:39.420Z,1010.93
2018-04-14T01:12:39.419Z,1010.95
2018-04-14T01:13:39.416Z,1010.94
2018-04-14T01:14:39.415Z,1010.94
2018-04-14T01:15:39.402Z,1010.95
2018-04-14T01:16:39.411Z,1010.96
2018-04-14T01:17:39.390Z,1010.95
2018-04-14T01:18:39.388Z,1010.94
2018-04-14T01:19:39.372Z,1010.94
2018-04-14T01:20:39.378Z,1010.94
2018-04-14T01:21:39.372Z,1010.94
2018-04-14T01:22:39.413Z,1010.92
2018-04-14T01:23:39.363Z,1010.93
2018-04-14T01:24:39.357Z,1010.92
2018-04-14T01:25:39.356Z,1010.90
2018-04-14T01:26:39.342Z,1010.93
2018-04-14T01:27:39.336Z,1010.88
2018-04-14T01:28:39.327Z,1010.86
2018-04-14T01:29:39.333Z,1010.83
2018-04-14T01:30:39.326Z,1010.88
2018-04-14T01:31:39.323Z,1010.86
2018-04-14T01:32:39.308Z,1010.87
2018-04-14T01:33:39.308Z,1010.84
2018-04-14T01:34:39.324Z,1010.91
2018-04-14T01:35:39.293Z,1010.93
2018-04-14T01:36:39.315Z,1010.91
2018-04-14T01:37:39.278Z,1010.92
2018-04-14T01:38:39.281Z,1010.93
2018-04-14T01:39:39.278Z,1010.93
2018-04-14T01:40:39.272Z,1010.97
2018-04-14T01:41:39.267Z,1010.97
2018-04-14T01:42:39.263Z,1010.97
2018-04-14T01:43:39.266Z,1010.99
2018-04-14T01:44:39.257Z,1010.99
2018-04-14T01:45:39.252Z,1010.98
2018-04-14T01:46:39.257Z,1010.94
2018-04-14T01:47:39.239Z,1010.96
2018-04-14T01:48:39.234Z,1011.00
2018-04-14T01:49:39.235Z,1011.01
2018-04-14T01:50:39.221Z,1011.01
2018-04-14T01:51:39.219Z,1010.96
2018-04-14T01:52:39.213Z,1010.98
2018-04-14T01:53:39.207Z,1010.97
2018-04-14T01:54:39.211Z,1010.97
2018-04-14T01:55:39.193Z,1011.00
2018-04-14T01:56:39.194Z,1010.98
2018-04-14T01:57:39.188Z,1011.00
2018-04-14T01:58:39.182Z,1010.99
2018-04-14T01:59:39.178Z,1011.03
2018-04-14T02:00:39.174Z,1011.03
2018-04-14T02:01:39.166Z,1011.02
2018-04-14T02:02:39.162Z,1011.04
2018-04-14T02:03:39.158Z,1011.01
2018-04-14T02:04:39.145Z,1010.98
2018-04-14T02:05:39.142Z,1010.99
2018-04-14T02:06:39.168Z,1010.95
2018-04-14T02:07:39.138Z,1010.98
2018-04-14T02:08:39.128Z,1010.92
2018-04-14T02:09:39.126Z,1010.96
2018-04-14T02:10:39.122Z,1010.91
2018-04-14T02:11:39.121Z,1010.94
2018-04-14T02:12:39.109Z,1010.96
2018-04-14T02:13:39.110Z,1010.99
2018-04-14T02:14:39.108Z,1011.00
2018-04-14T02:15:39.089Z,1011.05
2018-04-14T02:16:39.077Z,1011.03
2018-04-14T02:17:39.079Z,1011.05
2018-04-14T02:18:39.073Z,1011.00
2018-04-14T02:19:39.073Z,1011.01
2018-04-14T02:20:39.072Z,1011.01
2018-04-14T02:21:39.064Z,1011.04
2018-04-14T02:22:39.053Z,1011.07
2018-04-14T02:23:39.054Z,1011.04
2018-04-14T02:24:39.047Z,1011.06
2018-04-14T02:25:39.034Z,1011.08
2018-04-14T02:26:39.036Z,1011.08
2018-04-14T02:27:39.033Z,1011.11
2018-04-14T02:28:39.025Z,1011.10
2018-04-14T02:29:39.019Z,1011.07
2018-04-14T02:30:39.014Z,1011.07
2018-04-14T02:31:39.014Z,1011.08
2018-04-14T02:32:39.017Z,1011.08
2018-04-14T02:33:39.004Z,1011.08
2018-04-14T02:34:38.992Z,1011.08
2018-04-14T02:35:38.989Z,1011.10
2018-04-14T02:36:38.982Z,1011.10
2018-04-14T02:37:38.981Z,1011.13
2018-04-14T02:38:38.976Z,1011.13
2018-04-14T02:39:38.968Z,1011.09
2018-04-14T02:40:38.962Z,1011.07
2018-04-14T02:41:38.951Z,1011.08
2018-04-14T02:42:38.947Z,1011.09
2018-04-14T02:43:38.938Z,1011.10
2018-04-14T02:44:38.937Z,1011.14
2018-04-14T02:45:38.937Z,1011.10
2018-04-14T02:46:38.929Z,1011.09
2018-04-14T02:47:38.947Z,1011.06
2018-04-14T02:48:38.936Z,1011.07
2018-04-14T02:49:38.912Z,1011.11
2018-04-14T02:50:38.915Z,1011.11
2018-04-14T02:51:38.906Z,1011.10
2018-04-14T02:52:38.907Z,1011.10
2018-04-14T02:53:38.896Z,1011.11
2018-04-14T02:54:38.887Z,1011.10
2018-04-14T02:55:38.890Z,1011.12
2018-04-14T02:56:38.871Z,1011.12
2018-04-14T02:57:38.873Z,1011.09
2018-04-14T02:58:38.864Z,1011.12
2018-04-14T02:59:38.865Z,1011.13
2018-04-14T03:00:38.860Z,1011.13
2018-04-14T03:01:38.849Z,1011.12
2018-04-14T03:02:38.843Z,1011.16
2018-04-14T03:03:38.845Z,1011.16
2018-04-14T03:04:38.838Z,1011.15
2018-04-14T03:05:38.827Z,1011.15
2018-04-14T03:06:38.833Z,1011.15
2018-04-14T03:07:38.824Z,1011.16
2018-04-14T03:08:38.817Z,1011.18
2018-04-14T03:09:38.810Z,1011.14
2018-04-14T03:10:38.803Z,1011.18
2018-04-14T03:11:38.798Z,1011.20
2018-04-14T03:12:38.794Z,1011.24
2018-04-14T03:13:38.793Z,1011.22
2018-04-14T03:14:38.793Z,1011.27
2018-04-14T03:15:38.774Z,1011.28
2018-04-14T03:16:38.774Z,1011.27
2018-04-14T03:17:38.765Z,1011.24
2018-04-14T03:18:38.780Z,1011.26
2018-04-14T03:19:38.760Z,1011.23
2018-04-14T03:20:38.745Z,1011.28
2018-04-14T03:21:38.750Z,1011.24
2018-04-14T03:22:38.743Z,1011.27
2018-04-14T03:23:38.735Z,1011.29
2018-04-14T03:24:38.729Z,1011.28
2018-04-14T03:25:38.733Z,1011.32
2018-04-14T03:26:38.733Z,1011.34
2018-04-14T03:27:38.725Z,1011.36
2018-04-14T03:28:38.710Z,1011.40
2018-04-14T03:29:38.704Z,1011.41
2018-04-14T03:30:38.706Z,1011.43
2018-04-14T03:31:38.704Z,1011.44
2018-04-14T03:32:38.692Z,1011.45
2018-04-14T03:33:38.683Z,1011.48
2018-04-14T03:34:38.679Z,1011.48
2018-04-14T03:35:38.674Z,1011.48
2018-04-14T03:36:38.675Z,1011.48
2018-04-14T03:37:38.663Z,1011.51
2018-04-14T03:38:38.663Z,1011.52
2018-04-14T03:39:38.658Z,1011.53
2018-04-14T03:40:38.645Z,1011.55
2018-04-14T03:41:38.641Z,1011.51
2018-04-14T03:42:38.641Z,1011.48
2018-04-14T03:43:38.628Z,1011.50
2018-04-14T03:44:38.628Z,1011.47
2018-04-14T03:45:38.629Z,1011.50
2018-04-14T03:46:38.631Z,1011.50
2018-04-14T03:47:38.613Z,1011.52
2018-04-14T03:48:38.608Z,1011.55
2018-04-14T03:49:38.599Z,1011.57
2018-04-14T03:50:38.598Z,1011.56
2018-04-14T03:51:38.594Z,1011.56
2018-04-14T03:52:38.599Z,1011.59
2018-04-14T03:53:38.586Z,1011.63
2018-04-14T03:54:38.573Z,1011.62
2018-04-14T03:55:38.570Z,1011.67
2018-04-14T03:56:38.571Z,1011.68
2018-04-14T03:57:38.563Z,1011.68
2018-04-14T03:58:38.551Z,1011.70
2018-04-14T03:59:38.619Z,1011.68
2018-04-14T04:00:38.540Z,1011.67
2018-04-14T04:01:38.530Z,1011.67
2018-04-14T04:02:38.529Z,1011.68
2018-04-14T04:03:38.534Z,1011.67
2018-04-14T04:04:38.521Z,1011.71
2018-04-14T04:05:38.510Z,1011.71
2018-04-14T04:06:38.513Z,1011.74
2018-04-14T04:07:38.510Z,1011.75
2018-04-14T04:08:38.498Z,1011.74
2018-04-14T04:09:38.504Z,1011.78
2018-04-14T04:10:38.494Z,1011.82
2018-04-14T04:11:38.500Z,1011.83
2018-04-14T04:12:38.482Z,1011.79
2018-04-14T04:13:38.474Z,1011.82
2018-04-14T04:14:38.483Z,1011.86
2018-04-14T04:15:38.498Z,1011.86
2018-04-14T04:16:38.459Z,1011.90
2018-04-14T04:17:38.459Z,1011.89
2018-04-14T04:18:38.458Z,1011.89
2018-04-14T04:19:38.439Z,1011.93
2018-04-14T04:20:38.439Z,1011.94
2018-04-14T04:21:38.430Z,1011.99
2018-04-14T04:22:38.430Z,1012.00
2018-04-14T04:23:38.425Z,1012.06
2018-04-14T04:24:38.415Z,1012.05
2018-04-14T04:25:38.409Z,1012.06
2018-04-14T04:26:38.399Z,1012.10
2018-04-14T04:27:38.405Z,1012.12
2018-04-14T04:28:38.393Z,1012.08
2018-04-14T04:29:38.385Z,1012.08
2018-04-14T04:30:38.390Z,1012.12
2018-04-14T04:31:38.380Z,1012.13
2018-04-14T04:32:38.396Z,1012.12
2018-04-14T04:33:38.370Z,1012.17
2018-04-14T04:34:38.367Z,1012.17
2018-04-14T04:35:38.359Z,1012.17
2018-04-14T04:36:38.355Z,1012.20
2018-04-14T04:37:38.355Z,1012.21
2018-04-14T04:38:38.344Z,1012.23
2018-04-14T04:39:38.339Z,1012.24
2018-04-14T04:40:38.335Z,1012.27
2018-04-14T04:41:38.329Z,1012.26
2018-04-14T04:42:38.321Z,1012.26
2018-04-14T04:43:38.316Z,1012.28
2018-04-14T04:44:38.314Z,1012.30
2018-04-14T04:45:38.316Z,1012.29
2018-04-14T04:46:38.307Z,1012.28
2018-04-14T04:47:38.310Z,1012.29
2018-04-14T04:48:38.304Z,1012.28
2018-04-14T04:49:38.290Z,1012.27
2018-04-14T04:50:38.284Z,1012.27
2018-04-14T04:51:38.286Z,1012.28
2018-04-14T04:52:38.266Z,1012.30
2018-04-14T04:53:38.272Z,1012.29
2018-04-14T04:54:38.255Z,1012.28
2018-04-14T04:55:38.261Z,1012.30
2018-04-14T04:56:38.251Z,1012.29
2018-04-14T04:57:38.242Z,1012.34
2018-04-14T04:58:38.255Z,1012.36
2018-04-14T04:59:38.231Z,1012.39
2018-04-14T05:00:38.222Z,1012.40
2018-04-14T05:01:38.227Z,1012.42
2018-04-14T05:02:38.220Z,1012.48
2018-04-14T05:03:38.220Z,1012.49
2018-04-14T05:04:38.210Z,1012.52
2018-04-14T05:05:38.196Z,1012.53
2018-04-14T05:06:38.190Z,1012.49
2018-04-14T05:07:38.226Z,1012.50
2018-04-14T05:08:38.187Z,1012.55
2018-04-14T05:09:38.183Z,1012.55
2018-04-14T05:10:38.176Z,1012.59
2018-04-14T05:11:38.167Z,1012.57
2018-04-14T05:12:38.167Z,1012.60
2018-04-14T05:13:38.192Z,1012.60
2018-04-14T05:14:38.159Z,1012.58
2018-04-14T05:15:38.147Z,1012.60
2018-04-14T05:16:38.138Z,1012.57
2018-04-14T05:17:38.137Z,1012.58
2018-04-14T05:18:38.137Z,1012.63
2018-04-14T05:19:38.132Z,1012.61
2018-04-14T05:20:38.123Z,1012.62
2018-04-14T05:21:38.118Z,1012.63
2018-04-14T05:22:38.108Z,1012.69
2018-04-14T05:23:38.111Z,1012.72
2018-04-14T05:24:38.102Z,1012.73
2018-04-14T05:25:38.095Z,1012.73
2018-04-14T05:26:38.096Z,1012.74
2018-04-14T05:27:38.083Z,1012.77
2018-04-14T05:28:38.078Z,1012.80
2018-04-14T05:29:38.080Z,1012.83
2018-04-14T05:30:38.070Z,1012.82
2018-04-14T05:31:38.061Z,1012.80
2018-04-14T05:32:38.052Z,1012.78
2018-04-14T05:33:38.056Z,1012.84
2018-04-14T05:34:38.054Z,1012.80
2018-04-14T05:35:38.047Z,1012.86
2018-04-14T05:36:38.037Z,1012.85
2018-04-14T05:37:38.042Z,1012.86
2018-04-14T05:38:38.033Z,1012.87
2018-04-14T05:39:38.028Z,1012.93
2018-04-14T05:40:38.013Z,1012.90
2018-04-14T05:41:38.026Z,1012.91
2018-04-14T05:42:38.007Z,1012.89
2018-04-14T05:43:38.011Z,1012.89
2018-04-14T05:44:37.997Z,1012.95
2018-04-14T05:45:37.991Z,1012.93
2018-04-14T05:46:37.987Z,1012.91
2018-04-14T05:47:37.977Z,1012.87
2018-04-14T05:48:37.982Z,1012.85
2018-04-14T05:49:37.968Z,1012.89
2018-04-14T05:50:37.963Z,1012.87
2018-04-14T05:51:37.955Z,1012.85
2018-04-14T05:52:37.958Z,1012.90
2018-04-14T05:53:37.956Z,1012.90
2018-04-14T05:54:37.946Z,1012.94
2018-04-14T05:55:37.936Z,1012.93
2018-04-14T05:56:37.943Z,1012.97
2018-04-14T05:57:37.924Z,1012.98
2018-04-14T05:58:37.927Z,1012.95
2018-04-14T05:59:37.924Z,1012.97
2018-04-14T06:00:37.915Z,1012.97
2018-04-14T06:01:37.913Z,1013.00
2018-04-14T06:02:37.899Z,1012.98
2018-04-14T06:03:37.894Z,1012.98
2018-04-14T06:04:37.887Z,1013.03
2018-04-14T06:05:37.883Z,1013.03
2018-04-14T06:06:37.886Z,1013.05
2018-04-14T06:07:37.879Z,1013.11
2018-04-14T06:08:37.870Z,1013.09
2018-04-14T06:09:37.868Z,1013.10
2018-04-14T06:10:37.858Z,1013.14
2018-04-14T06:11:37.852Z,1013.13
2018-04-14T06:12:37.846Z,1013.12
2018-04-14T06:13:37.841Z,1013.15
2018-04-14T06:14:37.838Z,1013.15
2018-04-14T06:15:37.844Z,1013.16
2018-04-14T06:16:37.826Z,1013.18
2018-04-14T06:17:37.831Z,1013.18
2018-04-14T06:18:37.816Z,1013.15
2018-04-14T06:19:37.808Z,1013.17
2018-04-14T06:20:37.806Z,1013.21
2018-04-14T06:21:37.799Z,1013.23
2018-04-14T06:22:37.796Z,1013.24
2018-04-14T06:23:37.795Z,1013.24
2018-04-14T06:24:37.787Z,1013.28
2018-04-14T06:25:37.777Z,1013.29
2018-04-14T06:26:37.781Z,1013.28
2018-04-14T06:27:37.761Z,1013.28
2018-04-14T06:28:37.763Z,1013.25
2018-04-14T06:29:37.757Z,1013.27
2018-04-14T06:30:37.749Z,1013.28
2018-04-14T06:31:37.742Z,1013.31
2018-04-14T06:32:37.789Z,1013.31
2018-04-14T06:33:37.753Z,1013.32
2018-04-14T06:34:37.733Z,1013.33
2018-04-14T06:35:37.732Z,1013.32
2018-04-14T06:36:37.723Z,1013.32
2018-04-14T06:37:37.722Z,1013.32
2018-04-14T06:38:37.709Z,1013.34
2018-04-14T06:39:37.704Z,1013.36
2018-04-14T06:40:37.696Z,1013.33
2018-04-14T06:41:37.693Z,1013.37
2018-04-14T06:42:37.692Z,1013.37
2018-04-14T06:43:37.685Z,1013.38
2018-04-14T06:44:37.687Z,1013.40
2018-04-14T06:45:37.671Z,1013.43
2018-04-14T06:46:37.668Z,1013.44
2018-04-14T06:47:37.674Z,1013.48
2018-04-14T06:48:37.668Z,1013.49
2018-04-14T06:49:37.653Z,1013.52
2018-04-14T06:50:37.658Z,1013.55
2018-04-14T06:51:37.646Z,1013.57
2018-04-14T06:52:37.628Z,1013.55
2018-04-14T06:53:37.634Z,1013.62
2018-04-14T06:54:37.635Z,1013.59
2018-04-14T06:55:37.616Z,1013.64
2018-04-14T06:56:37.614Z,1013.65
2018-04-14T06:57:37.613Z,1013.71
2018-04-14T06:58:37.609Z,1013.69
2018-04-14T06:59:37.606Z,1013.69
2018-04-14T07:00:37.602Z,1013.69
2018-04-14T07:01:37.599Z,1013.74
2018-04-14T07:02:37.578Z,1013.74
2018-04-14T07:03:37.593Z,1013.75
2018-04-14T07:04:37.583Z,1013.76
2018-04-14T07:05:37.583Z,1013.75
2018-04-14T07:06:37.564Z,1013.76
2018-04-14T07:07:37.586Z,1013.81
2018-04-14T07:08:37.555Z,1013.78
2018-04-14T07:09:37.555Z,1013.79
2018-04-14T07:10:37.540Z,1013.77
2018-04-14T07:11:37.554Z,1013.74
2018-04-14T07:12:37.535Z,1013.73
2018-04-14T07:13:37.537Z,1013.75
2018-04-14T07:14:37.518Z,1013.76
2018-04-14T07:15:37.522Z,1013.75
2018-04-14T07:16:37.508Z,1013.74
2018-04-14T07:17:37.514Z,1013.80
2018-04-14T07:18:37.515Z,1013.76
2018-04-14T07:19:37.503Z,1013.73
2018-04-14T07:20:37.548Z,1013.74
2018-04-14T07:21:37.491Z,1013.73
2018-04-14T07:22:37.496Z,1013.78
2018-04-14T07:23:37.483Z,1013.83
2018-04-14T07:24:37.478Z,1013.82
2018-04-14T07:25:37.480Z,1013.80
2018-04-14T07:26:37.469Z,1013.82
2018-04-14T07:27:37.461Z,1013.86
2018-04-14T07:28:37.448Z,1013.89
2018-04-14T07:29:37.451Z,1013.88
2018-04-14T07:30:37.447Z,1013.89
2018-04-14T07:31:37.445Z,1013.87
2018-04-14T07:32:37.462Z,1013.91
2018-04-14T07:33:37.429Z,1013.89
2018-04-14T07:34:37.417Z,1013.91
2018-04-14T07:35:37.430Z,1013.95
2018-04-14T07:36:37.423Z,1013.95
2018-04-14T07:37:37.454Z,1013.96
2018-04-14T07:38:37.405Z,1013.93
2018-04-14T07:39:37.398Z,1013.97
2018-04-14T07:40:37.399Z,1013.98
2018-04-14T07:41:37.400Z,1014.01
2018-04-14T07:42:37.415Z,1014.01
2018-04-14T07:43:37.390Z,1013.99
2018-04-14T07:44:37.370Z,1013.99
2018-04-14T07:45:37.379Z,1014.00
2018-04-14T07:46:37.368Z,1014.03
2018-04-14T07:47:37.364Z,1014.01
2018-04-14T07:48:37.354Z,1014.04
2018-04-14T07:49:37.357Z,1014.07
2018-04-14T07:50:37.347Z,1014.06
2018-04-14T07:51:37.338Z,1014.11
2018-04-14T07:52:37.327Z,1014.05
2018-04-14T07:53:37.363Z,1014.11
2018-04-14T07:54:37.330Z,1014.13
2018-04-14T07:55:37.335Z,1014.11
2018-04-14T07:56:37.309Z,1014.14
2018-04-14T07:57:37.318Z,1014.14
2018-04-14T07:58:37.321Z,1014.16
2018-04-14T07:59:37.300Z,1014.16
2018-04-14T08:00:37.306Z,1014.20
2018-04-14T08:01:37.301Z,1014.19
2018-04-14T08:02:37.288Z,1014.20
2018-04-14T08:03:37.282Z,1014.23
2018-04-14T08:04:37.273Z,1014.21
2018-04-14T08:05:37.269Z,1014.20
2018-04-14T08:06:37.276Z,1014.20
2018-04-14T08:07:37.269Z,1014.23
2018-04-14T08:08:37.264Z,1014.23
2018-04-14T08:09:37.259Z,1014.20
2018-04-14T08:10:37.244Z,1014.26
2018-04-14T08:11:37.355Z,1014.24
2018-04-14T08:12:37.235Z,1014.28
2018-04-14T08:13:37.237Z,1014.26
2018-04-14T08:14:37.221Z,1014.30
2018-04-14T08:15:37.220Z,1014.26
2018-04-14T08:16:37.235Z,1014.28
2018-04-14T08:17:37.211Z,1014.30
2018-04-14T08:18:37.215Z,1014.30
2018-04-14T08:19:37.207Z,1014.30
2018-04-14T08:20:37.195Z,1014.29
2018-04-14T08:21:37.194Z,1014.31
2018-04-14T08:22:37.202Z,1014.34
2018-04-14T08:23:37.191Z,1014.33
2018-04-14T08:24:37.237Z,1014.35
2018-04-14T08:25:37.183Z,1014.34
2018-04-14T08:26:37.172Z,1014.37
2018-04-14T08:27:37.161Z,1014.39
2018-04-14T08:28:37.159Z,1014.42
2018-04-14T08:29:37.156Z,1014.41
2018-04-14T08:30:37.141Z,1014.44
2018-04-14T08:31:37.167Z,1014.45
2018-04-14T08:32:37.140Z,1014.47
2018-04-14T08:33:37.148Z,1014.46
2018-04-14T08:34:37.127Z,1014.44
2018-04-14T08:35:37.128Z,1014.53
2018-04-14T08:36:37.119Z,1014.52
2018-04-14T08:37:37.114Z,1014.49
2018-04-14T08:38:37.108Z,1014.52
2018-04-14T08:39:37.113Z,1014.55
2018-04-14T08:40:37.144Z,1014.53
2018-04-14T08:41:37.098Z,1014.55
2018-04-14T08:42:37.095Z,1014.52
2018-04-14T08:43:37.083Z,1014.56
2018-04-14T08:44:37.067Z,1014.57
2018-04-14T08:45:37.073Z,1014.56
2018-04-14T08:46:37.075Z,1014.56
2018-04-14T08:47:37.068Z,1014.54
2018-04-14T08:48:37.055Z,1014.52
2018-04-14T08:49:37.059Z,1014.52
2018-04-14T08:50:37.054Z,1014.49
2018-04-14T08:51:37.049Z,1014.52
2018-04-14T08:52:37.048Z,1014.57
2018-04-14T08:53:37.035Z,1014.55
2018-04-14T08:54:37.030Z,1014.57
2018-04-14T08:55:37.013Z,1014.56
2018-04-14T08:56:37.018Z,1014.56
2018-04-14T08:57:37.012Z,1014.58
2018-04-14T08:58:37.018Z,1014.59
2018-04-14T08:59:37.007Z,1014.57
2018-04-14T09:00:37.018Z,1014.57
2018-04-14T09:01:37.001Z,1014.56
2018-04-14T09:02:36.991Z,1014.56
2018-04-14T09:03:36.989Z,1014.56
2018-04-14T09:04:36.975Z,1014.56
2018-04-14T09:05:37.013Z,1014.56
2018-04-14T09:06:36.972Z,1014.56
2018-04-14T09:07:36.975Z,1014.57
2018-04-14T09:08:36.978Z,1014.58
2018-04-14T09:09:36.958Z,1014.58
2018-04-14T09:10:36.957Z,1014.61
2018-04-14T09:11:36.958Z,1014.64
2018-04-14T09:12:36.948Z,1014.64
2018-04-14T09:13:36.936Z,1014.61
2018-04-14T09:14:36.929Z,1014.62
2018-04-14T09:15:36.939Z,1014.60
2018-04-14T09:16:36.924Z,1014.62
2018-04-14T09:17:36.918Z,1014.64
2018-04-14T09:18:36.923Z,1014.59
2018-04-14T09:19:36.923Z,1014.61
2018-04-14T09:20:36.907Z,1014.58
2018-04-14T09:21:36.908Z,1014.64
2018-04-14T09:22:36.903Z,1014.62
2018-04-14T09:23:36.898Z,1014.62
2018-04-14T09:24:36.898Z,1014.63
2018-04-14T09:25:36.886Z,1014.62
2018-04-14T09:26:36.879Z,1014.66
2018-04-14T09:27:36.892Z,1014.66
2018-04-14T09:28:36.878Z,1014.66
2018-04-14T09:29:36.874Z,1014.63
2018-04-14T09:30:36.870Z,1014.63
2018-04-14T09:31:36.849Z,1014.62
2018-04-14T09:32:36.850Z,1014.64
2018-04-14T09:33:36.861Z,1014.64
2018-04-14T09:34:36.849Z,1014.64
2018-04-14T09:35:36.843Z,1014.66
2018-04-14T09:36:36.835Z,1014.63
2018-04-14T09:37:36.846Z,1014.62
2018-04-14T09:38:36.835Z,1014.63
2018-04-14T09:39:36.827Z,1014.68
2018-04-14T09:40:36.810Z,1014.65
2018-04-14T09:41:36.825Z,1014.65
2018-04-14T09:42:36.807Z,1014.65
2018-04-14T09:43:36.802Z,1014.62
2018-04-14T09:44:36.805Z,1014.64
2018-04-14T09:45:36.806Z,1014.65
2018-04-14T09:46:36.791Z,1014.61
2018-04-14T09:47:36.783Z,1014.64
2018-04-14T09:48:36.796Z,1014.64
2018-04-14T09:49:36.782Z,1014.65
2018-04-14T09:50:36.790Z,1014.64
2018-04-14T09:51:36.765Z,1014.63
2018-04-14T09:52:36.766Z,1014.67
2018-04-14T09:53:36.781Z,1014.64
2018-04-14T09:54:36.765Z,1014.62
2018-04-14T09:55:36.754Z,1014.64
2018-04-14T09:56:36.742Z,1014.64
2018-04-14T09:57:36.749Z,1014.60
2018-04-14T09:58:36.748Z,1014.60
2018-04-14T09:59:36.748Z,1014.63
2018-04-14T10:00:36.722Z,1014.62
2018-04-14T10:01:36.721Z,1014.58
2018-04-14T10:02:36.721Z,1014.54
2018-04-14T10:03:36.727Z,1014.52
2018-04-14T10:04:36.718Z,1014.52
2018-04-14T10:05:36.708Z,1014.53
2018-04-14T10:06:36.712Z,1014.51
2018-04-14T10:07:36.712Z,1014.53
2018-04-14T10:08:36.697Z,1014.53
2018-04-14T10:09:36.686Z,1014.48
2018-04-14T10:10:36.702Z,1014.48
2018-04-14T10:11:36.686Z,1014.48
2018-04-14T10:12:36.685Z,1014.49
2018-04-14T10:13:36.677Z,1014.49
2018-04-14T10:14:36.682Z,1014.49
2018-04-14T10:15:36.673Z,1014.48
2018-04-14T10:16:36.658Z,1014.50
2018-04-14T10:17:36.653Z,1014.49
2018-04-14T10:18:36.646Z,1014.46
2018-04-14T10:19:36.644Z,1014.42
2018-04-14T10:20:36.649Z,1014.42
2018-04-14T10:21:36.653Z,1014.47
2018-04-14T10:22:36.648Z,1014.46
2018-04-14T10:23:36.623Z,1014.47
2018-04-14T10:24:36.628Z,1014.48
2018-04-14T10:25:36.623Z,1014.46
2018-04-14T10:26:36.607Z,1014.47
2018-04-14T10:27:36.607Z,1014.44
2018-04-14T10:28:36.606Z,1014.47
2018-04-14T10:29:36.587Z,1014.45
2018-04-14T10:30:36.597Z,1014.42
2018-04-14T10:31:36.632Z,1014.43
2018-04-14T10:32:36.585Z,1014.44
2018-04-14T10:33:36.586Z,1014.42
2018-04-14T10:34:36.576Z,1014.42
2018-04-14T10:35:36.582Z,1014.43
2018-04-14T10:36:36.566Z,1014.43
2018-04-14T10:37:36.572Z,1014.40
2018-04-14T10:38:36.565Z,1014.36
2018-04-14T10:39:36.572Z,1014.37
2018-04-14T10:40:36.569Z,1014.37
2018-04-14T10:41:36.556Z,1014.34
2018-04-14T10:42:36.548Z,1014.34
2018-04-14T10:43:36.543Z,1014.32
2018-04-14T10:44:36.535Z,1014.36
2018-04-14T10:45:36.532Z,1014.31
2018-04-14T10:46:36.531Z,1014.37
2018-04-14T10:47:36.535Z,1014.42
2018-04-14T10:48:36.516Z,1014.37
2018-04-14T10:49:36.518Z,1014.35
2018-04-14T10:50:36.515Z,1014.38
2018-04-14T10:51:36.524Z,1014.36
2018-04-14T10:52:36.498Z,1014.37
2018-04-14T10:53:36.506Z,1014.34
2018-04-14T10:54:36.484Z,1014.34
2018-04-14T10:55:36.488Z,1014.38
2018-04-14T10:56:36.478Z,1014.36
2018-04-14T10:57:36.486Z,1014.37
2018-04-14T10:58:36.471Z,1014.32
2018-04-14T10:59:36.472Z,1014.35
2018-04-14T11:00:36.458Z,1014.34
2018-04-14T11:01:36.453Z,1014.36
2018-04-14T11:02:36.457Z,1014.34
2018-04-14T11:03:36.443Z,1014.36
2018-04-14T11:04:36.453Z,1014.34
2018-04-14T11:05:36.440Z,1014.34
2018-04-14T11:06:36.446Z,1014.33
2018-04-14T11:07:36.442Z,1014.31
2018-04-14T11:08:36.421Z,1014.31
2018-04-14T11:09:36.427Z,1014.31
2018-04-14T11:10:36.437Z,1014.33
2018-04-14T11:11:36.415Z,1014.31
2018-04-14T11:12:36.404Z,1014.31
2018-04-14T11:13:36.416Z,1014.33
2018-04-14T11:14:36.406Z,1014.33
2018-04-14T11:15:36.408Z,1014.31
2018-04-14T11:16:36.404Z,1014.30
2018-04-14T11:17:36.379Z,1014.36
2018-04-14T11:18:36.382Z,1014.28
2018-04-14T11:19:36.376Z,1014.31
2018-04-14T11:20:36.426Z,1014.26
2018-04-14T11:21:36.372Z,1014.27
2018-04-14T11:22:36.373Z,1014.30
2018-04-14T11:23:36.356Z,1014.29
2018-04-14T11:24:36.354Z,1014.29
2018-04-14T11:25:36.348Z,1014.29
2018-04-14T11:26:36.355Z,1014.30
2018-04-14T11:27:36.354Z,1014.28
2018-04-14T11:28:36.344Z,1014.23
2018-04-14T11:29:36.340Z,1014.27
2018-04-14T11:30:36.345Z,1014.25
2018-04-14T11:31:36.344Z,1014.27
2018-04-14T11:32:36.323Z,1014.25
2018-04-14T11:33:36.325Z,1014.23
2018-04-14T11:34:36.335Z,1014.20
2018-04-14T11:35:36.324Z,1014.24
2018-04-14T11:36:36.319Z,1014.22
2018-04-14T11:37:36.304Z,1014.20
2018-04-14T11:38:36.300Z,1014.24
2018-04-14T11:39:36.308Z,1014.23
2018-04-14T11:40:36.295Z,1014.21
2018-04-14T11:41:36.290Z,1014.21
2018-04-14T11:42:36.279Z,1014.20
2018-04-14T11:43:36.287Z,1014.19
2018-04-14T11:44:36.270Z,1014.20
2018-04-14T11:45:36.284Z,1014.17
2018-04-14T11:46:36.279Z,1014.19
2018-04-14T11:47:36.259Z,1014.19
2018-04-14T11:48:36.295Z,1014.18
2018-04-14T11:49:36.260Z,1014.18
2018-04-14T11:50:36.281Z,1014.15
2018-04-14T11:51:36.254Z,1014.14
2018-04-14T11:52:36.249Z,1014.17
2018-04-14T11:53:36.249Z,1014.18
2018-04-14T11:54:36.227Z,1014.19
2018-04-14T11:55:36.227Z,1014.19
2018-04-14T11:56:36.219Z,1014.22
2018-04-14T11:57:36.235Z,1014.23
2018-04-14T11:58:36.235Z,1014.25
2018-04-14T11:59:36.248Z,1014.30
2018-04-14T12:00:36.223Z,1014.32
2018-04-14T12:01:36.200Z,1014.34
2018-04-14T12:02:36.201Z,1014.33
2018-04-14T12:03:36.221Z,1014.30
2018-04-14T12:04:36.189Z,1014.31
2018-04-14T12:05:36.183Z,1014.32